Windham, New Hampshire
Current Conditions -  °F | °C
As of 9:54 PM on Sunday 23 Nov 2014 (Local Time) from KLWM Reporting Station
Overcast Overcast  
Wind Chill: 10°   Ceiling: 11000
Heat Index: 10°   Visibility: 10mi
Dew Point:   Wind: 5mph
Humidity: 54%   Direction: NA
Pressure: 30.12"   Gusts: NA
Location:  42.8°N, 71.3°W
Report Text: KLWM 240254Z VRB04KT 10SM OVC110 10/01 A3012 RMK AO2 SLP201 T01000011 56007
Loading
Personal Weather Stations






























Interactive Weather Map New forecast layout! Learn more

10-Day Weather Forecast

Advertisements
Track Severe Weather on mobile